KEFD/EFD METAR and TAF weather

Enter ICAO airport designator
Station Type Date Time Source
KEFD METAR 2019/05/19 19:50 UTC NOAA

KEFD 191950Z 17010KT 10SM SCT040 BKN250 32/23


Station Type Date Time Source
KEFD Decoded METAR 2019/05/19 19:50 UTC NOAA

Houston / Ellington, TX, United States (KEFD) 29-36N 095-10W
May 19, 2019 - 03:50 PM EDT / 2019.05.19 1950 UTC
Wind: from the S (170 degrees) at 12 MPH (10 KT):0
Visibility: 10 mile(s):0
Sky conditions: mostly cloudy
Temperature: 89 F (32 C)
Heat index: 96.8 F (36.0 C):1
Dew Point: 73 F (23 C)
Relative Humidity: 59%
ob: KEFD 191950Z 17010KT 10SM SCT040 BKN250 32/23
cycle: 20

Station Type Date Time Source
KEFD TAF 2019/05/19 20:06 UTC NOAA

TAF KEFD 192000Z 1920/2102 16009KT 9999 SCT040 BKN250 QNH2981INS
BECMG 2000/2001 14009KT 9999 BKN018 OVC030 QNH2982INS
BECMG 2003/2004 15009KT 8000 BR OVC007 QNH2986INS
BECMG 2014/2015 15015G25KT 9999 NSW FEW018 SCT035 QNH2976INS TX34/1922Z TN25/2012Z

Example: see airport list